Estación de Campanacura
Ultimos registro cada 15 minutos 29
| N° | Estación | Fecha / Hora | Temperatura | Humedad | Lluvia | Velocidad | Dirección | Radiación | Presion |
| 29 | Campanacura | 06-05-2026 07:00 | 12,7 | 14,3 | 0,6 | 0,5 | 10 | 0,6 | 996,8 |
| 28 | Campanacura | 06-05-2026 06:45 | 12,7 | 14,2 | 0 | 2 | 13 | 0,6 | 996,9 |
| 27 | Campanacura | 06-05-2026 06:30 | 12,7 | 14,3 | 0 | 2 | 7 | 0,6 | 996,8 |
| 26 | Campanacura | 06-05-2026 06:15 | 12,6 | 14,3 | 0,2 | 3 | 8 | 0,6 | 996,7 |
| 25 | Campanacura | 06-05-2026 06:00 | 12,5 | 14,6 | 0,2 | 3 | 10 | 0,6 | 996,7 |
| 24 | Campanacura | 06-05-2026 05:45 | 12,5 | 14,7 | 0,8 | 3 | 0 | 0,6 | 996,6 |
| 23 | Campanacura | 06-05-2026 05:30 | 12,6 | 14,2 | 0,2 | 3 | 1 | 0,6 | 996,9 |
| 22 | Campanacura | 06-05-2026 05:15 | 12,6 | 14,3 | 0 | 3,5 | 13 | 0,6 | 996,7 |
| 21 | Campanacura | 06-05-2026 05:00 | 12,6 | 14,8 | 0,2 | 3,5 | 15 | 0,6 | 996,3 |
| 20 | Campanacura | 06-05-2026 04:45 | 12,5 | 15,1 | 0,4 | 3,5 | 10 | 0,6 | 996,5 |
| 19 | Campanacura | 06-05-2026 04:30 | 12,6 | 15,1 | 0,8 | 3,5 | 7 | 0,6 | 996,6 |
| 18 | Campanacura | 06-05-2026 04:15 | 12,7 | 15 | 0,6 | 3,5 | 6 | 0,6 | 996,9 |
| 17 | Campanacura | 06-05-2026 04:00 | 12,7 | 15,3 | 1 | 3,5 | 8 | 0,6 | 996,9 |
| 16 | Campanacura | 06-05-2026 03:45 | 12,7 | 16,3 | 1,4 | 3,5 | 4 | 0,6 | 997,1 |
| 15 | Campanacura | 06-05-2026 03:30 | 13,1 | 20,6 | 0,8 | 3,5 | 355 | 0,6 | 997,3 |
| 14 | Campanacura | 06-05-2026 03:15 | 13,2 | 22,7 | 0,4 | 4 | 4 | 0,6 | 997,1 |
| 13 | Campanacura | 06-05-2026 03:00 | 14,6 | 40,2 | 0 | 3,5 | 6 | 0,6 | 997,1 |
| 12 | Campanacura | 06-05-2026 02:45 | 14,7 | 39,3 | 0 | 3,5 | 11 | 0,6 | 997,1 |
| 11 | Campanacura | 06-05-2026 02:30 | 14,6 | 37,5 | 0 | 4 | 17 | 0,6 | 997,1 |
| 10 | Campanacura | 06-05-2026 02:15 | 14,8 | 40,8 | 0 | 4,5 | 11 | 0,6 | 997,1 |
| 9 | Campanacura | 06-05-2026 02:00 | 15 | 41,9 | 0 | 5 | 17 | 0,6 | 997,1 |
| 8 | Campanacura | 06-05-2026 01:45 | 14,9 | 40 | 0 | 4,5 | 15 | 0,6 | 996,8 |
| 7 | Campanacura | 06-05-2026 01:30 | 14,7 | 36 | 0 | 4,5 | 8 | 0,6 | 997,1 |
| 6 | Campanacura | 06-05-2026 01:15 | 14,7 | 35 | 0 | 4,5 | 10 | 0,6 | 996,8 |
| 5 | Campanacura | 06-05-2026 01:00 | 14,8 | 34,8 | 0 | 3,5 | 8 | 0,6 | 996,9 |
| 4 | Campanacura | 06-05-2026 00:45 | 14,8 | 35,7 | 0 | 3,5 | 13 | 0,6 | 997,2 |
| 3 | Campanacura | 06-05-2026 00:30 | 14,9 | 35,9 | 0 | 2 | 14 | 0,6 | 997,5 |
| 2 | Campanacura | 06-05-2026 00:15 | 14,8 | 35 | 0 | 1,5 | 38 | 0,6 | 997,9 |
| 1 | Campanacura | 06-05-2026 00:00 | 14,7 | 34,3 | 0 | 1 | 56 | 0,6 | 998 |